sensor_id;sensor_type;location;lat;lon;timestamp;temperature;humidity
4908;DHT22;64375;51.540;7.364;2023-04-24T00:00:44;18.70;87.30
4908;DHT22;64375;51.540;7.364;2023-04-24T00:03:12;18.70;87.30
4908;DHT22;64375;51.540;7.364;2023-04-24T00:05:45;18.70;87.40
4908;DHT22;64375;51.540;7.364;2023-04-24T00:08:13;18.70;87.50
4908;DHT22;64375;51.540;7.364;2023-04-24T00:10:41;18.70;87.50
4908;DHT22;64375;51.540;7.364;2023-04-24T00:13:12;18.70;87.60
4908;DHT22;64375;51.540;7.364;2023-04-24T00:15:42;18.70;87.50
4908;DHT22;64375;51.540;7.364;2023-04-24T00:18:13;18.60;87.30
4908;DHT22;64375;51.540;7.364;2023-04-24T00:20:42;18.60;87.30
4908;DHT22;64375;51.540;7.364;2023-04-24T00:23:15;18.60;87.30
4908;DHT22;64375;51.540;7.364;2023-04-24T00:25:43;18.60;87.70
4908;DHT22;64375;51.540;7.364;2023-04-24T00:28:13;18.60;88.00
4908;DHT22;64375;51.540;7.364;2023-04-24T00:30:42;18.60;87.80
4908;DHT22;64375;51.540;7.364;2023-04-24T00:33:16;18.60;88.40
4908;DHT22;64375;51.540;7.364;2023-04-24T00:35:49;18.60;88.20
4908;DHT22;64375;51.540;7.364;2023-04-24T00:38:28;18.60;88.10
4908;DHT22;64375;51.540;7.364;2023-04-24T00:41:18;18.60;88.20
4908;DHT22;64375;51.540;7.364;2023-04-24T00:43:47;18.60;88.10
4908;DHT22;64375;51.540;7.364;2023-04-24T00:46:16;18.60;88.00
4908;DHT22;64375;51.540;7.364;2023-04-24T00:48:44;18.60;87.90
4908;DHT22;64375;51.540;7.364;2023-04-24T00:51:12;18.60;88.00
4908;DHT22;64375;51.540;7.364;2023-04-24T00:53:46;18.60;87.50
4908;DHT22;64375;51.540;7.364;2023-04-24T00:56:22;18.60;87.70
4908;DHT22;64375;51.540;7.364;2023-04-24T00:58:51;18.60;87.80
4908;DHT22;64375;51.540;7.364;2023-04-24T01:01:19;18.50;87.70
4908;DHT22;64375;51.540;7.364;2023-04-24T01:03:49;18.50;87.60
4908;DHT22;64375;51.540;7.364;2023-04-24T01:06:19;18.50;87.80
4908;DHT22;64375;51.540;7.364;2023-04-24T01:08:49;18.60;88.00
4908;DHT22;64375;51.540;7.364;2023-04-24T01:11:17;18.50;87.80
4908;DHT22;64375;51.540;7.364;2023-04-24T01:13:52;18.50;87.80
4908;DHT22;64375;51.540;7.364;2023-04-24T01:16:26;18.50;87.80
4908;DHT22;64375;51.540;7.364;2023-04-24T01:19:07;18.50;88.20
4908;DHT22;64375;51.540;7.364;2023-04-24T01:21:36;18.50;88.20
4908;DHT22;64375;51.540;7.364;2023-04-24T01:24:08;18.50;88.00
4908;DHT22;64375;51.540;7.364;2023-04-24T01:26:42;18.60;88.00
4908;DHT22;64375;51.540;7.364;2023-04-24T01:29:14;18.50;87.60
4908;DHT22;64375;51.540;7.364;2023-04-24T01:31:42;18.50;87.90
4908;DHT22;64375;51.540;7.364;2023-04-24T01:34:11;18.50;87.90
4908;DHT22;64375;51.540;7.364;2023-04-24T01:36:39;18.50;87.90
4908;DHT22;64375;51.540;7.364;2023-04-24T01:39:13;18.50;88.00
4908;DHT22;64375;51.540;7.364;2023-04-24T01:41:42;18.50;88.00
4908;DHT22;64375;51.540;7.364;2023-04-24T01:44:12;18.50;87.90
4908;DHT22;64375;51.540;7.364;2023-04-24T01:46:40;18.40;88.00
4908;DHT22;64375;51.540;7.364;2023-04-24T01:49:08;18.40;88.10
4908;DHT22;64375;51.540;7.364;2023-04-24T01:51:42;18.40;87.90
4908;DHT22;64375;51.540;7.364;2023-04-24T01:54:12;18.40;87.70
4908;DHT22;64375;51.540;7.364;2023-04-24T01:56:43;18.30;86.50
4908;DHT22;64375;51.540;7.364;2023-04-24T01:59:11;18.30;87.60
4908;DHT22;64375;51.540;7.364;2023-04-24T02:01:51;18.30;87.50
4908;DHT22;64375;51.540;7.364;2023-04-24T02:04:22;18.20;87.70
4908;DHT22;64375;51.540;7.364;2023-04-24T02:07:12;18.20;88.00
4908;DHT22;64375;51.540;7.364;2023-04-24T02:09:41;18.20;88.30
4908;DHT22;64375;51.540;7.364;2023-04-24T02:12:12;18.30;88.60
4908;DHT22;64375;51.540;7.364;2023-04-24T02:14:40;18.30;86.80
4908;DHT22;64375;51.540;7.364;2023-04-24T02:17:12;18.20;85.50
4908;DHT22;64375;51.540;7.364;2023-04-24T02:19:51;18.20;88.10
4908;DHT22;64375;51.540;7.364;2023-04-24T02:22:26;18.20;88.10
4908;DHT22;64375;51.540;7.364;2023-04-24T02:25:11;18.20;88.10
4908;DHT22;64375;51.540;7.364;2023-04-24T02:27:41;18.30;88.10
4908;DHT22;64375;51.540;7.364;2023-04-24T02:30:16;18.20;87.80
4908;DHT22;64375;51.540;7.364;2023-04-24T02:32:46;18.20;87.80
4908;DHT22;64375;51.540;7.364;2023-04-24T02:35:14;18.20;88.10
4908;DHT22;64375;51.540;7.364;2023-04-24T02:37:42;18.30;87.50
4908;DHT22;64375;51.540;7.364;2023-04-24T02:40:17;18.20;88.10
4908;DHT22;64375;51.540;7.364;2023-04-24T02:42:45;18.20;88.00
4908;DHT22;64375;51.540;7.364;2023-04-24T02:45:16;18.20;88.20
4908;DHT22;64375;51.540;7.364;2023-04-24T02:47:46;18.20;87.80
4908;DHT22;64375;51.540;7.364;2023-04-24T02:50:14;18.20;87.40
4908;DHT22;64375;51.540;7.364;2023-04-24T02:52:42;18.20;85.10
4908;DHT22;64375;51.540;7.364;2023-04-24T02:55:10;18.10;88.00
4908;DHT22;64375;51.540;7.364;2023-04-24T02:57:42;18.10;88.10
4908;DHT22;64375;51.540;7.364;2023-04-24T03:00:11;18.10;87.90
4908;DHT22;64375;51.540;7.364;2023-04-24T03:02:40;18.10;88.10
4908;DHT22;64375;51.540;7.364;2023-04-24T03:05:08;18.10;87.70
4908;DHT22;64375;51.540;7.364;2023-04-24T03:07:38;18.20;88.00
4908;DHT22;64375;51.540;7.364;2023-04-24T03:10:12;18.20;88.10
4908;DHT22;64375;51.540;7.364;2023-04-24T03:12:44;18.20;88.20
4908;DHT22;64375;51.540;7.364;2023-04-24T03:15:12;18.20;88.20
4908;DHT22;64375;51.540;7.364;2023-04-24T03:17:40;18.20;87.90
4908;DHT22;64375;51.540;7.364;2023-04-24T03:20:10;18.20;88.30
4908;DHT22;64375;51.540;7.364;2023-04-24T03:22:38;18.20;88.00
4908;DHT22;64375;51.540;7.364;2023-04-24T03:25:09;18.20;87.80
4908;DHT22;64375;51.540;7.364;2023-04-24T03:27:39;18.10;87.90
4908;DHT22;64375;51.540;7.364;2023-04-24T03:30:11;18.10;87.80
4908;DHT22;64375;51.540;7.364;2023-04-24T03:32:39;18.10;88.00
4908;DHT22;64375;51.540;7.364;2023-04-24T03:35:08;18.10;87.70
4908;DHT22;64375;51.540;7.364;2023-04-24T03:37:39;18.00;87.90
4908;DHT22;64375;51.540;7.364;2023-04-24T03:40:08;18.00;88.10
4908;DHT22;64375;51.540;7.364;2023-04-24T03:42:36;18.00;88.40
4908;DHT22;64375;51.540;7.364;2023-04-24T03:45:10;18.00;88.40
4908;DHT22;64375;51.540;7.364;2023-04-24T03:47:38;18.00;88.50
4908;DHT22;64375;51.540;7.364;2023-04-24T03:50:12;18.00;88.40
4908;DHT22;64375;51.540;7.364;2023-04-24T03:52:39;18.00;88.50
4908;DHT22;64375;51.540;7.364;2023-04-24T03:55:18;18.00;88.40
4908;DHT22;64375;51.540;7.364;2023-04-24T03:57:46;18.00;88.60
4908;DHT22;64375;51.540;7.364;2023-04-24T04:00:15;18.00;88.30
4908;DHT22;64375;51.540;7.364;2023-04-24T04:02:45;18.00;88.10
4908;DHT22;64375;51.540;7.364;2023-04-24T04:05:13;18.00;88.10
4908;DHT22;64375;51.540;7.364;2023-04-24T04:07:41;18.00;88.20
4908;DHT22;64375;51.540;7.364;2023-04-24T04:10:11;18.00;88.10
4908;DHT22;64375;51.540;7.364;2023-04-24T04:12:39;18.00;88.50
4908;DHT22;64375;51.540;7.364;2023-04-24T04:15:08;18.00;88.30
4908;DHT22;64375;51.540;7.364;2023-04-24T04:17:37;18.00;88.20
4908;DHT22;64375;51.540;7.364;2023-04-24T04:20:08;18.00;88.20
4908;DHT22;64375;51.540;7.364;2023-04-24T04:22:40;18.10;88.10
4908;DHT22;64375;51.540;7.364;2023-04-24T04:25:10;18.10;87.90
4908;DHT22;64375;51.540;7.364;2023-04-24T04:27:45;18.20;87.90
4908;DHT22;64375;51.540;7.364;2023-04-24T04:30:14;18.30;87.50
4908;DHT22;64375;51.540;7.364;2023-04-24T04:32:44;18.30;87.20
4908;DHT22;64375;51.540;7.364;2023-04-24T04:35:12;18.40;87.20
4908;DHT22;64375;51.540;7.364;2023-04-24T04:37:39;18.40;86.90
4908;DHT22;64375;51.540;7.364;2023-04-24T04:40:13;18.50;86.80
4908;DHT22;64375;51.540;7.364;2023-04-24T04:42:41;18.60;87.10
4908;DHT22;64375;51.540;7.364;2023-04-24T04:45:15;18.50;86.50
4908;DHT22;64375;51.540;7.364;2023-04-24T04:47:45;18.60;86.80
4908;DHT22;64375;51.540;7.364;2023-04-24T04:50:16;18.60;86.60
4908;DHT22;64375;51.540;7.364;2023-04-24T04:52:46;18.60;86.70
4908;DHT22;64375;51.540;7.364;2023-04-24T04:55:14;18.60;86.50
4908;DHT22;64375;51.540;7.364;2023-04-24T04:57:49;18.60;86.20
4908;DHT22;64375;51.540;7.364;2023-04-24T05:00:17;18.70;86.20
4908;DHT22;64375;51.540;7.364;2023-04-24T05:02:49;18.60;86.80
4908;DHT22;64375;51.540;7.364;2023-04-24T05:05:29;18.60;86.30
4908;DHT22;64375;51.540;7.364;2023-04-24T05:07:57;18.60;85.90
4908;DHT22;64375;51.540;7.364;2023-04-24T05:10:30;18.60;85.40
4908;DHT22;64375;51.540;7.364;2023-04-24T05:12:58;18.60;85.90
4908;DHT22;64375;51.540;7.364;2023-04-24T05:15:28;18.50;85.50
4908;DHT22;64375;51.540;7.364;2023-04-24T05:17:58;18.50;85.80
4908;DHT22;64375;51.540;7.364;2023-04-24T05:20:26;18.60;86.20
4908;DHT22;64375;51.540;7.364;2023-04-24T05:22:56;18.60;85.30
4908;DHT22;64375;51.540;7.364;2023-04-24T05:25:24;18.60;85.50
4908;DHT22;64375;51.540;7.364;2023-04-24T05:27:51;18.50;84.90
4908;DHT22;64375;51.540;7.364;2023-04-24T05:30:22;18.50;85.10
4908;DHT22;64375;51.540;7.364;2023-04-24T05:32:50;18.50;85.40
4908;DHT22;64375;51.540;7.364;2023-04-24T05:35:20;18.50;85.50
4908;DHT22;64375;51.540;7.364;2023-04-24T05:37:53;18.50;85.60
4908;DHT22;64375;51.540;7.364;2023-04-24T05:40:21;18.50;85.60
4908;DHT22;64375;51.540;7.364;2023-04-24T05:42:51;18.50;85.80
4908;DHT22;64375;51.540;7.364;2023-04-24T05:45:21;18.50;85.90
4908;DHT22;64375;51.540;7.364;2023-04-24T05:47:58;18.50;86.40
4908;DHT22;64375;51.540;7.364;2023-04-24T05:50:27;18.50;86.30
4908;DHT22;64375;51.540;7.364;2023-04-24T05:52:55;18.50;86.20
4908;DHT22;64375;51.540;7.364;2023-04-24T05:55:29;18.50;86.20
4908;DHT22;64375;51.540;7.364;2023-04-24T05:57:57;18.50;86.10
4908;DHT22;64375;51.540;7.364;2023-04-24T06:00:26;18.50;85.90
4908;DHT22;64375;51.540;7.364;2023-04-24T06:02:55;18.50;85.60
4908;DHT22;64375;51.540;7.364;2023-04-24T06:05:23;18.50;85.90
4908;DHT22;64375;51.540;7.364;2023-04-24T06:07:53;18.50;86.20
4908;DHT22;64375;51.540;7.364;2023-04-24T06:10:21;18.50;86.20
4908;DHT22;64375;51.540;7.364;2023-04-24T06:12:49;18.20;83.80
4908;DHT22;64375;51.540;7.364;2023-04-24T06:15:22;17.90;84.10
4908;DHT22;64375;51.540;7.364;2023-04-24T06:17:50;17.90;85.40
4908;DHT22;64375;51.540;7.364;2023-04-24T06:20:19;18.00;85.70
4908;DHT22;64375;51.540;7.364;2023-04-24T06:22:47;18.10;86.10
4908;DHT22;64375;51.540;7.364;2023-04-24T06:25:16;18.20;86.40
4908;DHT22;64375;51.540;7.364;2023-04-24T06:27:44;18.30;86.10
4908;DHT22;64375;51.540;7.364;2023-04-24T06:30:15;18.30;86.50
4908;DHT22;64375;51.540;7.364;2023-04-24T06:32:43;18.30;86.40
4908;DHT22;64375;51.540;7.364;2023-04-24T06:35:14;18.30;86.20
4908;DHT22;64375;51.540;7.364;2023-04-24T06:37:49;18.30;86.50
4908;DHT22;64375;51.540;7.364;2023-04-24T06:40:21;18.40;86.50
4908;DHT22;64375;51.540;7.364;2023-04-24T06:42:51;18.30;86.70
4908;DHT22;64375;51.540;7.364;2023-04-24T06:45:22;18.30;86.60
4908;DHT22;64375;51.540;7.364;2023-04-24T06:47:55;18.30;86.60
4908;DHT22;64375;51.540;7.364;2023-04-24T06:50:24;18.30;86.70
4908;DHT22;64375;51.540;7.364;2023-04-24T06:52:52;18.30;86.60
4908;DHT22;64375;51.540;7.364;2023-04-24T06:55:21;18.30;86.90
4908;DHT22;64375;51.540;7.364;2023-04-24T06:57:55;18.30;87.30
4908;DHT22;64375;51.540;7.364;2023-04-24T07:00:23;18.30;87.20
4908;DHT22;64375;51.540;7.364;2023-04-24T07:02:57;18.30;87.00
4908;DHT22;64375;51.540;7.364;2023-04-24T07:05:25;18.30;87.10
4908;DHT22;64375;51.540;7.364;2023-04-24T07:07:53;18.30;86.60
4908;DHT22;64375;51.540;7.364;2023-04-24T07:10:22;18.30;86.60
4908;DHT22;64375;51.540;7.364;2023-04-24T07:12:51;18.30;86.90
4908;DHT22;64375;51.540;7.364;2023-04-24T07:15:21;18.30;87.00
4908;DHT22;64375;51.540;7.364;2023-04-24T07:17:52;18.30;87.00
4908;DHT22;64375;51.540;7.364;2023-04-24T07:20:20;18.30;86.90
4908;DHT22;64375;51.540;7.364;2023-04-24T07:22:54;18.30;87.00
4908;DHT22;64375;51.540;7.364;2023-04-24T07:25:24;18.30;87.10
4908;DHT22;64375;51.540;7.364;2023-04-24T07:27:58;18.30;86.80
4908;DHT22;64375;51.540;7.364;2023-04-24T07:30:26;18.30;87.10
4908;DHT22;64375;51.540;7.364;2023-04-24T07:32:55;18.30;87.10
4908;DHT22;64375;51.540;7.364;2023-04-24T07:35:26;18.30;86.80
4908;DHT22;64375;51.540;7.364;2023-04-24T07:37:54;18.30;86.80
4908;DHT22;64375;51.540;7.364;2023-04-24T07:40:23;18.10;85.20
4908;DHT22;64375;51.540;7.364;2023-04-24T07:42:51;18.00;85.90
4908;DHT22;64375;51.540;7.364;2023-04-24T07:45:27;18.00;86.20
4908;DHT22;64375;51.540;7.364;2023-04-24T07:47:58;18.10;86.50
4908;DHT22;64375;51.540;7.364;2023-04-24T07:50:29;18.10;86.50
4908;DHT22;64375;51.540;7.364;2023-04-24T07:52:57;18.10;86.70
4908;DHT22;64375;51.540;7.364;2023-04-24T07:55:26;18.10;86.20
4908;DHT22;64375;51.540;7.364;2023-04-24T07:57:54;18.10;86.60
4908;DHT22;64375;51.540;7.364;2023-04-24T08:00:25;18.10;87.00
4908;DHT22;64375;51.540;7.364;2023-04-24T08:03:02;18.20;87.30
4908;DHT22;64375;51.540;7.364;2023-04-24T08:05:37;18.20;87.20
4908;DHT22;64375;51.540;7.364;2023-04-24T08:08:09;18.20;87.10
4908;DHT22;64375;51.540;7.364;2023-04-24T08:10:46;18.20;87.10
4908;DHT22;64375;51.540;7.364;2023-04-24T08:13:17;18.00;87.90
4908;DHT22;64375;51.540;7.364;2023-04-24T08:15:50;17.50;86.50
4908;DHT22;64375;51.540;7.364;2023-04-24T08:18:18;17.40;86.00
4908;DHT22;64375;51.540;7.364;2023-04-24T08:20:46;17.40;90.50
4908;DHT22;64375;51.540;7.364;2023-04-24T08:23:14;17.50;91.20
4908;DHT22;64375;51.540;7.364;2023-04-24T08:25:43;17.60;92.60
4908;DHT22;64375;51.540;7.364;2023-04-24T08:28:11;17.70;92.90
4908;DHT22;64375;51.540;7.364;2023-04-24T08:30:46;17.80;92.80
4908;DHT22;64375;51.540;7.364;2023-04-24T08:33:14;17.80;91.40
4908;DHT22;64375;51.540;7.364;2023-04-24T08:35:42;17.70;93.30
4908;DHT22;64375;51.540;7.364;2023-04-24T08:38:10;17.80;93.90
4908;DHT22;64375;51.540;7.364;2023-04-24T08:40:38;17.40;90.60
4908;DHT22;64375;51.540;7.364;2023-04-24T08:43:07;17.00;89.40
4908;DHT22;64375;51.540;7.364;2023-04-24T08:45:36;17.10;91.10
4908;DHT22;64375;51.540;7.364;2023-04-24T08:48:06;17.30;92.20
4908;DHT22;64375;51.540;7.364;2023-04-24T08:50:56;17.40;92.90
4908;DHT22;64375;51.540;7.364;2023-04-24T08:53:27;17.60;93.00
4908;DHT22;64375;51.540;7.364;2023-04-24T08:56:01;17.70;93.30
4908;DHT22;64375;51.540;7.364;2023-04-24T08:58:31;17.70;93.30
4908;DHT22;64375;51.540;7.364;2023-04-24T09:01:03;17.80;92.70
4908;DHT22;64375;51.540;7.364;2023-04-24T09:03:33;17.80;93.70
4908;DHT22;64375;51.540;7.364;2023-04-24T09:06:11;17.80;93.70
4908;DHT22;64375;51.540;7.364;2023-04-24T09:08:42;17.90;93.90
4908;DHT22;64375;51.540;7.364;2023-04-24T09:11:11;17.90;94.00
4908;DHT22;64375;51.540;7.364;2023-04-24T09:13:41;17.90;94.00
4908;DHT22;64375;51.540;7.364;2023-04-24T09:16:13;17.90;94.00
4908;DHT22;64375;51.540;7.364;2023-04-24T09:18:42;17.90;94.00
4908;DHT22;64375;51.540;7.364;2023-04-24T09:21:16;17.90;94.40
4908;DHT22;64375;51.540;7.364;2023-04-24T09:23:43;17.90;94.70
4908;DHT22;64375;51.540;7.364;2023-04-24T09:26:18;17.90;94.80
4908;DHT22;64375;51.540;7.364;2023-04-24T09:28:48;17.90;95.10
4908;DHT22;64375;51.540;7.364;2023-04-24T09:31:18;17.90;95.40
4908;DHT22;64375;51.540;7.364;2023-04-24T09:33:54;17.60;94.40
4908;DHT22;64375;51.540;7.364;2023-04-24T09:36:29;17.40;94.50
4908;DHT22;64375;51.540;7.364;2023-04-24T09:39:00;17.40;94.50
4908;DHT22;64375;51.540;7.364;2023-04-24T09:41:35;17.50;96.40
4908;DHT22;64375;51.540;7.364;2023-04-24T09:44:15;17.70;95.30
4908;DHT22;64375;51.540;7.364;2023-04-24T09:46:54;17.50;95.70
4908;DHT22;64375;51.540;7.364;2023-04-24T09:49:29;17.40;94.20
4908;DHT22;64375;51.540;7.364;2023-04-24T09:52:03;17.50;96.80
4908;DHT22;64375;51.540;7.364;2023-04-24T09:54:34;17.60;96.80
4908;DHT22;64375;51.540;7.364;2023-04-24T09:57:07;17.60;97.10
4908;DHT22;64375;51.540;7.364;2023-04-24T09:59:45;17.30;94.50
4908;DHT22;64375;51.540;7.364;2023-04-24T10:02:19;17.30;97.00
4908;DHT22;64375;51.540;7.364;2023-04-24T10:04:54;17.40;97.20
4908;DHT22;64375;51.540;7.364;2023-04-24T10:07:26;17.50;95.90
4908;DHT22;64375;51.540;7.364;2023-04-24T10:09:54;17.50;97.30
4908;DHT22;64375;51.540;7.364;2023-04-24T10:12:23;17.50;97.30
4908;DHT22;64375;51.540;7.364;2023-04-24T10:14:53;17.50;97.30
4908;DHT22;64375;51.540;7.364;2023-04-24T10:17:42;17.60;96.90
4908;DHT22;64375;51.540;7.364;2023-04-24T10:20:20;17.60;96.90
4908;DHT22;64375;51.540;7.364;2023-04-24T10:22:49;17.60;96.90
4908;DHT22;64375;51.540;7.364;2023-04-24T10:25:27;17.40;94.90
4908;DHT22;64375;51.540;7.364;2023-04-24T10:27:59;17.20;96.00
4908;DHT22;64375;51.540;7.364;2023-04-24T10:30:31;17.20;94.90
4908;DHT22;64375;51.540;7.364;2023-04-24T10:33:02;17.10;96.00
4908;DHT22;64375;51.540;7.364;2023-04-24T10:35:31;17.00;96.40
4908;DHT22;64375;51.540;7.364;2023-04-24T10:38:11;17.00;96.90
4908;DHT22;64375;51.540;7.364;2023-04-24T10:40:45;17.00;98.10
4908;DHT22;64375;51.540;7.364;2023-04-24T10:43:21;17.00;94.10
4908;DHT22;64375;51.540;7.364;2023-04-24T10:46:04;16.90;97.70
4908;DHT22;64375;51.540;7.364;2023-04-24T10:48:36;16.90;97.70
4908;DHT22;64375;51.540;7.364;2023-04-24T10:51:21;16.80;98.10
4908;DHT22;64375;51.540;7.364;2023-04-24T10:53:59;17.10;97.90
4908;DHT22;64375;51.540;7.364;2023-04-24T10:56:41;17.20;97.90
4908;DHT22;64375;51.540;7.364;2023-04-24T10:59:09;17.20;97.90
4908;DHT22;64375;51.540;7.364;2023-04-24T11:01:52;17.30;97.90
4908;DHT22;64375;51.540;7.364;2023-04-24T11:04:29;17.20;94.00
4908;DHT22;64375;51.540;7.364;2023-04-24T11:06:58;17.10;94.20
4908;DHT22;64375;51.540;7.364;2023-04-24T11:09:32;17.10;97.00
4908;DHT22;64375;51.540;7.364;2023-04-24T11:12:06;17.30;96.50
4908;DHT22;64375;51.540;7.364;2023-04-24T11:15:01;17.00;94.60
4908;DHT22;64375;51.540;7.364;2023-04-24T11:17:32;16.90;97.40
4908;DHT22;64375;51.540;7.364;2023-04-24T11:20:01;16.80;96.90
4908;DHT22;64375;51.540;7.364;2023-04-24T11:22:44;16.80;97.30
4908;DHT22;64375;51.540;7.364;2023-04-24T11:25:15;16.80;96.40
4908;DHT22;64375;51.540;7.364;2023-04-24T11:27:44;16.90;97.90
4908;DHT22;64375;51.540;7.364;2023-04-24T11:30:17;17.00;97.10
4908;DHT22;64375;51.540;7.364;2023-04-24T11:32:50;16.90;96.30
4908;DHT22;64375;51.540;7.364;2023-04-24T11:35:20;16.80;97.10
4908;DHT22;64375;51.540;7.364;2023-04-24T11:37:57;17.00;97.50
4908;DHT22;64375;51.540;7.364;2023-04-24T11:40:34;16.90;96.80
4908;DHT22;64375;51.540;7.364;2023-04-24T11:43:04;16.80;96.20
4908;DHT22;64375;51.540;7.364;2023-04-24T11:45:36;16.80;97.50
4908;DHT22;64375;51.540;7.364;2023-04-24T11:48:05;16.60;95.10
4908;DHT22;64375;51.540;7.364;2023-04-24T11:50:33;16.50;97.80
4908;DHT22;64375;51.540;7.364;2023-04-24T11:53:01;16.70;98.30
4908;DHT22;64375;51.540;7.364;2023-04-24T11:55:29;16.70;97.20
4908;DHT22;64375;51.540;7.364;2023-04-24T11:57:58;16.70;98.00
4908;DHT22;64375;51.540;7.364;2023-04-24T12:00:38;16.60;96.50
4908;DHT22;64375;51.540;7.364;2023-04-24T12:03:11;16.60;97.20
4908;DHT22;64375;51.540;7.364;2023-04-24T12:05:47;16.60;97.20
4908;DHT22;64375;51.540;7.364;2023-04-24T12:08:27;16.50;96.30
4908;DHT22;64375;51.540;7.364;2023-04-24T12:10:55;16.50;97.70
4908;DHT22;64375;51.540;7.364;2023-04-24T12:13:27;16.50;98.20
4908;DHT22;64375;51.540;7.364;2023-04-24T12:15:56;16.50;96.20
4908;DHT22;64375;51.540;7.364;2023-04-24T12:18:26;16.80;97.10
4908;DHT22;64375;51.540;7.364;2023-04-24T12:20:54;16.80;96.20
4908;DHT22;64375;51.540;7.364;2023-04-24T12:23:36;16.90;97.80
4908;DHT22;64375;51.540;7.364;2023-04-24T12:26:04;17.00;96.80
4908;DHT22;64375;51.540;7.364;2023-04-24T12:28:36;17.00;96.20
4908;DHT22;64375;51.540;7.364;2023-04-24T12:31:06;16.80;92.90
4908;DHT22;64375;51.540;7.364;2023-04-24T12:33:39;16.90;96.80
4908;DHT22;64375;51.540;7.364;2023-04-24T12:36:10;16.90;95.80
4908;DHT22;64375;51.540;7.364;2023-04-24T12:38:43;16.90;97.30
4908;DHT22;64375;51.540;7.364;2023-04-24T12:41:21;17.00;95.10
4908;DHT22;64375;51.540;7.364;2023-04-24T12:43:52;16.70;93.60
4908;DHT22;64375;51.540;7.364;2023-04-24T12:46:21;16.70;97.20
4908;DHT22;64375;51.540;7.364;2023-04-24T12:48:54;16.80;96.90
4908;DHT22;64375;51.540;7.364;2023-04-24T12:51:23;16.70;96.00
4908;DHT22;64375;51.540;7.364;2023-04-24T12:53:54;16.90;96.90
4908;DHT22;64375;51.540;7.364;2023-04-24T12:56:25;16.90;96.50
4908;DHT22;64375;51.540;7.364;2023-04-24T12:58:53;16.70;94.70
4908;DHT22;64375;51.540;7.364;2023-04-24T13:01:27;16.40;96.40
4908;DHT22;64375;51.540;7.364;2023-04-24T13:03:56;16.50;96.70
4908;DHT22;64375;51.540;7.364;2023-04-24T13:06:24;16.60;95.30
4908;DHT22;64375;51.540;7.364;2023-04-24T13:08:53;16.80;97.20
4908;DHT22;64375;51.540;7.364;2023-04-24T13:11:21;16.90;97.20
4908;DHT22;64375;51.540;7.364;2023-04-24T13:13:49;16.80;94.20
4908;DHT22;64375;51.540;7.364;2023-04-24T13:16:20;16.70;96.50
4908;DHT22;64375;51.540;7.364;2023-04-24T13:18:49;16.90;97.20
4908;DHT22;64375;51.540;7.364;2023-04-24T13:21:18;17.00;96.30
4908;DHT22;64375;51.540;7.364;2023-04-24T13:23:46;17.00;96.70
4908;DHT22;64375;51.540;7.364;2023-04-24T13:26:14;17.30;94.50
4908;DHT22;64375;51.540;7.364;2023-04-24T13:28:42;17.50;95.60
4908;DHT22;64375;51.540;7.364;2023-04-24T13:31:13;17.40;92.90
4908;DHT22;64375;51.540;7.364;2023-04-24T13:33:41;17.40;95.60
4908;DHT22;64375;51.540;7.364;2023-04-24T13:36:10;17.10;92.80
4908;DHT22;64375;51.540;7.364;2023-04-24T13:38:39;17.20;95.60
4908;DHT22;64375;51.540;7.364;2023-04-24T13:41:13;17.20;96.00
4908;DHT22;64375;51.540;7.364;2023-04-24T13:43:41;17.40;95.90
4908;DHT22;64375;51.540;7.364;2023-04-24T13:46:10;17.50;95.60
4908;DHT22;64375;51.540;7.364;2023-04-24T13:48:38;17.50;95.30
4908;DHT22;64375;51.540;7.364;2023-04-24T13:51:13;17.30;94.60
4908;DHT22;64375;51.540;7.364;2023-04-24T13:53:42;17.20;92.50
4908;DHT22;64375;51.540;7.364;2023-04-24T13:56:12;17.30;95.40
4908;DHT22;64375;51.540;7.364;2023-04-24T13:58:47;17.40;94.40
4908;DHT22;64375;51.540;7.364;2023-04-24T14:01:17;17.30;95.30
4908;DHT22;64375;51.540;7.364;2023-04-24T14:03:45;17.40;95.00
4908;DHT22;64375;51.540;7.364;2023-04-24T14:06:14;17.40;94.20
4908;DHT22;64375;51.540;7.364;2023-04-24T14:08:43;17.10;94.10
4908;DHT22;64375;51.540;7.364;2023-04-24T14:11:11;17.10;93.70
4908;DHT22;64375;51.540;7.364;2023-04-24T14:13:41;17.00;90.70
4908;DHT22;64375;51.540;7.364;2023-04-24T14:16:12;17.00;94.80
4908;DHT22;64375;51.540;7.364;2023-04-24T14:18:51;17.10;95.60
4908;DHT22;64375;51.540;7.364;2023-04-24T14:21:19;17.10;95.20
4908;DHT22;64375;51.540;7.364;2023-04-24T14:23:51;17.20;94.10
4908;DHT22;64375;51.540;7.364;2023-04-24T14:26:19;17.00;91.80
4908;DHT22;64375;51.540;7.364;2023-04-24T14:28:50;16.90;91.80
4908;DHT22;64375;51.540;7.364;2023-04-24T14:31:29;16.80;93.30
4908;DHT22;64375;51.540;7.364;2023-04-24T14:33:57;16.90;94.10
4908;DHT22;64375;51.540;7.364;2023-04-24T14:36:27;17.10;94.30
4908;DHT22;64375;51.540;7.364;2023-04-24T14:38:59;17.10;93.00
4908;DHT22;64375;51.540;7.364;2023-04-24T14:41:29;17.10;92.70
4908;DHT22;64375;51.540;7.364;2023-04-24T14:44:01;17.20;92.70
4908;DHT22;64375;51.540;7.364;2023-04-24T14:46:29;17.10;93.20
4908;DHT22;64375;51.540;7.364;2023-04-24T14:49:00;16.90;93.50
4908;DHT22;64375;51.540;7.364;2023-04-24T14:51:28;16.70;90.40
4908;DHT22;64375;51.540;7.364;2023-04-24T14:54:01;16.40;90.20
4908;DHT22;64375;51.540;7.364;2023-04-24T14:56:29;16.00;90.00
4908;DHT22;64375;51.540;7.364;2023-04-24T14:59:10;15.70;89.10
4908;DHT22;64375;51.540;7.364;2023-04-24T15:01:38;15.60;87.30
4908;DHT22;64375;51.540;7.364;2023-04-24T15:04:11;15.80;88.80
4908;DHT22;64375;51.540;7.364;2023-04-24T15:06:42;15.90;90.40
4908;DHT22;64375;51.540;7.364;2023-04-24T15:09:11;16.10;90.90
4908;DHT22;64375;51.540;7.364;2023-04-24T15:11:42;16.30;91.30
4908;DHT22;64375;51.540;7.364;2023-04-24T15:14:10;16.40;91.10
4908;DHT22;64375;51.540;7.364;2023-04-24T15:16:38;16.40;91.50
4908;DHT22;64375;51.540;7.364;2023-04-24T15:19:14;16.50;90.30
4908;DHT22;64375;51.540;7.364;2023-04-24T15:21:44;16.60;92.00
4908;DHT22;64375;51.540;7.364;2023-04-24T15:24:17;16.60;92.00
4908;DHT22;64375;51.540;7.364;2023-04-24T15:26:51;16.70;92.00
4908;DHT22;64375;51.540;7.364;2023-04-24T15:29:25;16.90;91.10
4908;DHT22;64375;51.540;7.364;2023-04-24T15:31:56;16.90;91.10
4908;DHT22;64375;51.540;7.364;2023-04-24T15:34:24;16.80;91.70
4908;DHT22;64375;51.540;7.364;2023-04-24T15:36:57;16.50;91.20
4908;DHT22;64375;51.540;7.364;2023-04-24T15:39:29;16.60;92.70
4908;DHT22;64375;51.540;7.364;2023-04-24T15:41:58;16.90;92.80
4908;DHT22;64375;51.540;7.364;2023-04-24T15:44:29;16.90;92.60
4908;DHT22;64375;51.540;7.364;2023-04-24T15:47:00;16.90;91.10
4908;DHT22;64375;51.540;7.364;2023-04-24T15:49:31;16.80;92.70
4908;DHT22;64375;51.540;7.364;2023-04-24T15:52:12;16.80;93.00
4908;DHT22;64375;51.540;7.364;2023-04-24T15:54:41;16.90;93.00
4908;DHT22;64375;51.540;7.364;2023-04-24T15:57:09;16.70;91.10
4908;DHT22;64375;51.540;7.364;2023-04-24T15:59:40;16.90;92.90
4908;DHT22;64375;51.540;7.364;2023-04-24T16:02:09;16.70;92.60
4908;DHT22;64375;51.540;7.364;2023-04-24T16:04:40;16.70;90.50
4908;DHT22;64375;51.540;7.364;2023-04-24T16:07:10;16.80;92.80
4908;DHT22;64375;51.540;7.364;2023-04-24T16:09:47;17.00;92.80